FBSK/GBE METAR and TAF weather

Enter ICAO airport designator
Station Type Date Time Source
FBSK METAR 2018/12/11 00:00 UTC NOAA

FBSK 110000Z 13006KT CAVOK 18/10 Q1019 NOSIG


Station Type Date Time Source
FBSK Decoded METAR 2018/12/11 00:00 UTC NOAA

Seretse Khama International Airport, Botswana (FBSK) 24-13S 025-55E 1005M
Dec 10, 2018 - 07:00 PM EST / 2018.12.11 0000 UTC
Wind: from the SE (130 degrees) at 7 MPH (6 KT):0
Visibility: greater than 7 mile(s):0
Temperature: 64 F (18 C)
Dew Point: 50 F (10 C)
Relative Humidity: 59%
Pressure (altimeter): 30.09 in. Hg (1019 hPa)
ob: FBSK 110000Z 13006KT CAVOK 18/10 Q1019 NOSIG
cycle: 0

Station Type Date Time Source
FBSK TAF 2018/12/10 18:10 UTC NOAA

TAF FBSK 101500Z 1018/1124 33008KT CAVOK
BECMG 1104/1106 BKN012
BECMG 1109/1111 SCT025


Example: see airport list